sensor_id;sensor_type;location;lat;lon;timestamp;P1;durP1;ratioP1;P2;durP2;ratioP2
4359;SDS011;2193;47.980;7.660;2022-10-17T00:00:29;5.20;;;4.10;;
4359;SDS011;2193;47.980;7.660;2022-10-17T00:02:55;6.40;;;3.83;;
4359;SDS011;2193;47.980;7.660;2022-10-17T00:05:20;13.80;;;4.67;;
4359;SDS011;2193;47.980;7.660;2022-10-17T00:07:46;6.00;;;4.07;;
4359;SDS011;2193;47.980;7.660;2022-10-17T00:10:11;11.47;;;4.60;;
4359;SDS011;2193;47.980;7.660;2022-10-17T00:12:36;14.10;;;5.43;;
4359;SDS011;2193;47.980;7.660;2022-10-17T00:15:03;7.30;;;4.37;;
4359;SDS011;2193;47.980;7.660;2022-10-17T00:17:28;7.47;;;4.27;;
4359;SDS011;2193;47.980;7.660;2022-10-17T00:19:54;10.07;;;4.40;;
4359;SDS011;2193;47.980;7.660;2022-10-17T00:22:19;7.40;;;4.77;;
4359;SDS011;2193;47.980;7.660;2022-10-17T00:24:44;15.87;;;4.47;;
4359;SDS011;2193;47.980;7.660;2022-10-17T00:27:09;6.83;;;4.30;;
4359;SDS011;2193;47.980;7.660;2022-10-17T00:29:34;7.57;;;4.43;;
4359;SDS011;2193;47.980;7.660;2022-10-17T00:32:00;8.33;;;4.37;;
4359;SDS011;2193;47.980;7.660;2022-10-17T00:34:27;8.97;;;4.37;;
4359;SDS011;2193;47.980;7.660;2022-10-17T00:36:52;8.10;;;4.20;;
4359;SDS011;2193;47.980;7.660;2022-10-17T00:39:18;6.53;;;4.20;;
4359;SDS011;2193;47.980;7.660;2022-10-17T00:41:43;10.97;;;4.50;;
4359;SDS011;2193;47.980;7.660;2022-10-17T00:46:52;9.13;;;4.10;;
4359;SDS011;2193;47.980;7.660;2022-10-17T00:49:18;8.57;;;3.83;;
4359;SDS011;2193;47.980;7.660;2022-10-17T00:51:47;9.50;;;4.73;;
4359;SDS011;2193;47.980;7.660;2022-10-17T00:54:15;7.27;;;4.20;;
4359;SDS011;2193;47.980;7.660;2022-10-17T00:56:41;9.33;;;4.47;;
4359;SDS011;2193;47.980;7.660;2022-10-17T00:59:07;5.77;;;3.90;;
4359;SDS011;2193;47.980;7.660;2022-10-17T01:01:33;11.13;;;4.20;;
4359;SDS011;2193;47.980;7.660;2022-10-17T01:03:58;4.20;;;3.57;;
4359;SDS011;2193;47.980;7.660;2022-10-17T01:06:23;32.73;;;5.00;;
4359;SDS011;2193;47.980;7.660;2022-10-17T01:08:49;6.47;;;3.97;;
4359;SDS011;2193;47.980;7.660;2022-10-17T01:11:36;8.93;;;4.13;;
4359;SDS011;2193;47.980;7.660;2022-10-17T01:14:24;9.67;;;4.80;;
4359;SDS011;2193;47.980;7.660;2022-10-17T01:16:53;12.17;;;4.80;;
4359;SDS011;2193;47.980;7.660;2022-10-17T01:21:59;6.33;;;4.00;;
4359;SDS011;2193;47.980;7.660;2022-10-17T01:24:32;8.70;;;4.70;;
4359;SDS011;2193;47.980;7.660;2022-10-17T01:27:22;7.63;;;4.50;;
4359;SDS011;2193;47.980;7.660;2022-10-17T01:32:18;14.13;;;4.30;;
4359;SDS011;2193;47.980;7.660;2022-10-17T01:37:19;8.17;;;4.83;;
4359;SDS011;2193;47.980;7.660;2022-10-17T01:39:47;5.63;;;4.30;;
4359;SDS011;2193;47.980;7.660;2022-10-17T01:42:19;10.70;;;4.97;;
4359;SDS011;2193;47.980;7.660;2022-10-17T01:47:12;7.50;;;4.23;;
4359;SDS011;2193;47.980;7.660;2022-10-17T01:49:39;8.30;;;5.33;;
4359;SDS011;2193;47.980;7.660;2022-10-17T01:52:07;12.60;;;4.33;;
4359;SDS011;2193;47.980;7.660;2022-10-17T01:54:53;5.77;;;4.20;;
4359;SDS011;2193;47.980;7.660;2022-10-17T01:57:26;14.23;;;4.80;;
4359;SDS011;2193;47.980;7.660;2022-10-17T01:59:53;6.40;;;4.10;;
4359;SDS011;2193;47.980;7.660;2022-10-17T02:02:19;6.30;;;4.00;;
4359;SDS011;2193;47.980;7.660;2022-10-17T02:04:45;6.23;;;3.97;;
4359;SDS011;2193;47.980;7.660;2022-10-17T02:07:11;4.97;;;3.60;;
4359;SDS011;2193;47.980;7.660;2022-10-17T02:09:37;5.90;;;4.47;;
4359;SDS011;2193;47.980;7.660;2022-10-17T02:17:12;11.53;;;4.33;;
4359;SDS011;2193;47.980;7.660;2022-10-17T02:22:13;8.17;;;4.00;;
4359;SDS011;2193;47.980;7.660;2022-10-17T02:27:11;7.07;;;5.00;;
4359;SDS011;2193;47.980;7.660;2022-10-17T02:29:41;13.83;;;4.53;;
4359;SDS011;2193;47.980;7.660;2022-10-17T02:32:12;11.73;;;4.60;;
4359;SDS011;2193;47.980;7.660;2022-10-17T02:34:42;7.50;;;4.80;;
4359;SDS011;2193;47.980;7.660;2022-10-17T02:37:09;14.07;;;4.70;;
4359;SDS011;2193;47.980;7.660;2022-10-17T02:39:35;5.73;;;4.33;;
4359;SDS011;2193;47.980;7.660;2022-10-17T02:42:04;8.00;;;4.57;;
4359;SDS011;2193;47.980;7.660;2022-10-17T02:44:30;9.40;;;5.23;;
4359;SDS011;2193;47.980;7.660;2022-10-17T02:47:42;8.50;;;5.20;;
4359;SDS011;2193;47.980;7.660;2022-10-17T02:49:46;7.13;;;4.40;;
4359;SDS011;2193;47.980;7.660;2022-10-17T02:52:14;6.60;;;4.43;;
4359;SDS011;2193;47.980;7.660;2022-10-17T02:57:07;8.27;;;3.83;;
4359;SDS011;2193;47.980;7.660;2022-10-17T02:59:34;13.83;;;3.73;;
4359;SDS011;2193;47.980;7.660;2022-10-17T03:02:04;9.73;;;3.83;;
4359;SDS011;2193;47.980;7.660;2022-10-17T03:04:29;8.67;;;3.70;;
4359;SDS011;2193;47.980;7.660;2022-10-17T03:06:54;9.90;;;4.70;;
4359;SDS011;2193;47.980;7.660;2022-10-17T03:09:20;6.67;;;3.57;;
4359;SDS011;2193;47.980;7.660;2022-10-17T03:11:45;5.83;;;4.00;;
4359;SDS011;2193;47.980;7.660;2022-10-17T03:14:10;6.33;;;3.87;;
4359;SDS011;2193;47.980;7.660;2022-10-17T03:16:35;8.73;;;4.43;;
4359;SDS011;2193;47.980;7.660;2022-10-17T03:19:00;14.17;;;4.50;;
4359;SDS011;2193;47.980;7.660;2022-10-17T03:21:26;9.23;;;4.60;;
4359;SDS011;2193;47.980;7.660;2022-10-17T03:23:51;7.93;;;4.00;;
4359;SDS011;2193;47.980;7.660;2022-10-17T03:26:16;11.53;;;4.23;;
4359;SDS011;2193;47.980;7.660;2022-10-17T03:28:41;7.70;;;3.80;;
4359;SDS011;2193;47.980;7.660;2022-10-17T03:31:07;8.50;;;4.70;;
4359;SDS011;2193;47.980;7.660;2022-10-17T03:33:32;6.53;;;3.63;;
4359;SDS011;2193;47.980;7.660;2022-10-17T03:35:58;6.33;;;3.77;;
4359;SDS011;2193;47.980;7.660;2022-10-17T03:38:23;8.17;;;3.80;;
4359;SDS011;2193;47.980;7.660;2022-10-17T03:40:54;9.93;;;3.63;;
4359;SDS011;2193;47.980;7.660;2022-10-17T03:43:20;6.20;;;3.63;;
4359;SDS011;2193;47.980;7.660;2022-10-17T03:45:45;7.07;;;3.50;;
4359;SDS011;2193;47.980;7.660;2022-10-17T03:48:10;5.57;;;3.53;;
4359;SDS011;2193;47.980;7.660;2022-10-17T03:50:35;13.27;;;4.57;;
4359;SDS011;2193;47.980;7.660;2022-10-17T03:53:01;11.73;;;3.70;;
4359;SDS011;2193;47.980;7.660;2022-10-17T03:55:26;12.47;;;3.40;;
4359;SDS011;2193;47.980;7.660;2022-10-17T03:57:51;7.77;;;3.40;;
4359;SDS011;2193;47.980;7.660;2022-10-17T04:00:16;6.27;;;3.60;;
4359;SDS011;2193;47.980;7.660;2022-10-17T04:02:41;9.23;;;3.47;;
4359;SDS011;2193;47.980;7.660;2022-10-17T04:05:08;8.03;;;3.77;;
4359;SDS011;2193;47.980;7.660;2022-10-17T04:07:34;4.13;;;3.43;;
4359;SDS011;2193;47.980;7.660;2022-10-17T04:10:01;10.70;;;3.60;;
4359;SDS011;2193;47.980;7.660;2022-10-17T04:12:26;7.93;;;3.80;;
4359;SDS011;2193;47.980;7.660;2022-10-17T04:14:51;6.70;;;3.60;;
4359;SDS011;2193;47.980;7.660;2022-10-17T04:17:16;5.77;;;3.80;;
4359;SDS011;2193;47.980;7.660;2022-10-17T04:19:41;9.63;;;4.03;;
4359;SDS011;2193;47.980;7.660;2022-10-17T04:22:07;9.80;;;4.33;;
4359;SDS011;2193;47.980;7.660;2022-10-17T04:24:32;14.00;;;4.50;;
4359;SDS011;2193;47.980;7.660;2022-10-17T04:26:57;14.47;;;3.97;;
4359;SDS011;2193;47.980;7.660;2022-10-17T04:29:23;7.07;;;3.90;;
4359;SDS011;2193;47.980;7.660;2022-10-17T04:31:48;7.20;;;4.20;;
4359;SDS011;2193;47.980;7.660;2022-10-17T04:34:14;7.60;;;4.10;;
4359;SDS011;2193;47.980;7.660;2022-10-17T04:36:40;7.07;;;3.70;;
4359;SDS011;2193;47.980;7.660;2022-10-17T04:39:05;8.30;;;4.00;;
4359;SDS011;2193;47.980;7.660;2022-10-17T04:41:30;8.27;;;4.47;;
4359;SDS011;2193;47.980;7.660;2022-10-17T04:43:56;10.50;;;5.70;;
4359;SDS011;2193;47.980;7.660;2022-10-17T04:46:21;7.87;;;6.20;;
4359;SDS011;2193;47.980;7.660;2022-10-17T04:48:46;13.40;;;7.13;;
4359;SDS011;2193;47.980;7.660;2022-10-17T04:51:12;11.33;;;6.90;;
4359;SDS011;2193;47.980;7.660;2022-10-17T04:53:38;9.43;;;6.90;;
4359;SDS011;2193;47.980;7.660;2022-10-17T04:56:07;8.63;;;6.30;;
4359;SDS011;2193;47.980;7.660;2022-10-17T04:58:33;8.37;;;6.10;;
4359;SDS011;2193;47.980;7.660;2022-10-17T05:00:58;7.77;;;5.67;;
4359;SDS011;2193;47.980;7.660;2022-10-17T05:03:23;13.37;;;6.40;;
4359;SDS011;2193;47.980;7.660;2022-10-17T05:05:49;8.97;;;6.20;;
4359;SDS011;2193;47.980;7.660;2022-10-17T05:08:14;11.63;;;6.67;;
4359;SDS011;2193;47.980;7.660;2022-10-17T05:10:40;11.00;;;6.47;;
4359;SDS011;2193;47.980;7.660;2022-10-17T05:13:06;10.93;;;7.57;;
4359;SDS011;2193;47.980;7.660;2022-10-17T05:15:32;11.50;;;6.90;;
4359;SDS011;2193;47.980;7.660;2022-10-17T05:17:57;9.60;;;6.83;;
4359;SDS011;2193;47.980;7.660;2022-10-17T05:20:23;10.93;;;6.70;;
4359;SDS011;2193;47.980;7.660;2022-10-17T05:22:48;13.43;;;7.10;;
4359;SDS011;2193;47.980;7.660;2022-10-17T05:25:14;15.33;;;7.50;;
4359;SDS011;2193;47.980;7.660;2022-10-17T05:27:39;11.30;;;5.90;;
4359;SDS011;2193;47.980;7.660;2022-10-17T05:30:04;10.10;;;5.23;;
4359;SDS011;2193;47.980;7.660;2022-10-17T05:32:30;12.23;;;7.07;;
4359;SDS011;2193;47.980;7.660;2022-10-17T05:34:55;9.20;;;5.80;;
4359;SDS011;2193;47.980;7.660;2022-10-17T05:37:20;12.13;;;5.07;;
4359;SDS011;2193;47.980;7.660;2022-10-17T05:39:45;11.47;;;5.13;;
4359;SDS011;2193;47.980;7.660;2022-10-17T05:42:11;5.93;;;5.17;;
4359;SDS011;2193;47.980;7.660;2022-10-17T05:44:36;15.90;;;5.77;;
4359;SDS011;2193;47.980;7.660;2022-10-17T05:47:03;11.43;;;5.90;;
4359;SDS011;2193;47.980;7.660;2022-10-17T05:49:28;17.57;;;6.63;;
4359;SDS011;2193;47.980;7.660;2022-10-17T05:51:53;11.20;;;5.40;;
4359;SDS011;2193;47.980;7.660;2022-10-17T05:54:18;10.27;;;6.17;;
4359;SDS011;2193;47.980;7.660;2022-10-17T05:56:44;10.00;;;5.43;;
4359;SDS011;2193;47.980;7.660;2022-10-17T05:59:09;10.43;;;6.37;;
4359;SDS011;2193;47.980;7.660;2022-10-17T06:01:34;10.30;;;6.33;;
4359;SDS011;2193;47.980;7.660;2022-10-17T06:03:59;11.40;;;6.07;;
4359;SDS011;2193;47.980;7.660;2022-10-17T06:06:24;15.23;;;8.10;;
4359;SDS011;2193;47.980;7.660;2022-10-17T06:08:50;15.27;;;6.90;;
4359;SDS011;2193;47.980;7.660;2022-10-17T06:11:15;11.53;;;6.57;;
4359;SDS011;2193;47.980;7.660;2022-10-17T06:13:40;10.47;;;6.10;;
4359;SDS011;2193;47.980;7.660;2022-10-17T06:16:05;9.57;;;6.70;;
4359;SDS011;2193;47.980;7.660;2022-10-17T06:18:31;7.67;;;5.73;;
4359;SDS011;2193;47.980;7.660;2022-10-17T06:21:03;8.97;;;6.30;;
4359;SDS011;2193;47.980;7.660;2022-10-17T06:23:28;18.30;;;6.80;;
4359;SDS011;2193;47.980;7.660;2022-10-17T06:25:56;13.20;;;5.73;;
4359;SDS011;2193;47.980;7.660;2022-10-17T06:28:21;8.67;;;5.60;;
4359;SDS011;2193;47.980;7.660;2022-10-17T06:30:46;9.37;;;5.60;;
4359;SDS011;2193;47.980;7.660;2022-10-17T06:33:12;13.20;;;5.30;;
4359;SDS011;2193;47.980;7.660;2022-10-17T06:35:37;13.73;;;6.60;;
4359;SDS011;2193;47.980;7.660;2022-10-17T06:38:02;17.07;;;8.10;;
4359;SDS011;2193;47.980;7.660;2022-10-17T06:40:28;18.10;;;8.83;;
4359;SDS011;2193;47.980;7.660;2022-10-17T06:42:54;13.30;;;7.37;;
4359;SDS011;2193;47.980;7.660;2022-10-17T06:45:20;12.97;;;7.60;;
4359;SDS011;2193;47.980;7.660;2022-10-17T06:47:45;17.17;;;7.83;;
4359;SDS011;2193;47.980;7.660;2022-10-17T06:50:10;10.67;;;6.10;;
4359;SDS011;2193;47.980;7.660;2022-10-17T06:52:35;13.80;;;7.60;;
4359;SDS011;2193;47.980;7.660;2022-10-17T06:55:00;16.23;;;7.20;;
4359;SDS011;2193;47.980;7.660;2022-10-17T06:57:26;18.07;;;6.60;;
4359;SDS011;2193;47.980;7.660;2022-10-17T06:59:51;11.47;;;5.77;;
4359;SDS011;2193;47.980;7.660;2022-10-17T07:02:18;8.80;;;5.20;;
4359;SDS011;2193;47.980;7.660;2022-10-17T07:04:44;13.10;;;5.10;;
4359;SDS011;2193;47.980;7.660;2022-10-17T07:07:10;5.07;;;4.20;;
4359;SDS011;2193;47.980;7.660;2022-10-17T07:09:35;10.63;;;5.10;;
4359;SDS011;2193;47.980;7.660;2022-10-17T07:12:01;7.00;;;4.43;;
4359;SDS011;2193;47.980;7.660;2022-10-17T07:14:26;8.53;;;5.00;;
4359;SDS011;2193;47.980;7.660;2022-10-17T07:16:56;6.67;;;5.10;;
4359;SDS011;2193;47.980;7.660;2022-10-17T07:19:21;8.37;;;5.00;;
4359;SDS011;2193;47.980;7.660;2022-10-17T07:21:47;9.47;;;5.20;;
4359;SDS011;2193;47.980;7.660;2022-10-17T07:24:13;7.97;;;5.60;;
4359;SDS011;2193;47.980;7.660;2022-10-17T07:26:38;14.47;;;6.93;;
4359;SDS011;2193;47.980;7.660;2022-10-17T07:29:03;9.90;;;5.70;;
4359;SDS011;2193;47.980;7.660;2022-10-17T07:31:30;14.30;;;6.50;;
4359;SDS011;2193;47.980;7.660;2022-10-17T07:33:55;6.63;;;5.20;;
4359;SDS011;2193;47.980;7.660;2022-10-17T07:36:23;10.30;;;6.20;;
4359;SDS011;2193;47.980;7.660;2022-10-17T07:38:48;9.83;;;6.50;;
4359;SDS011;2193;47.980;7.660;2022-10-17T07:41:13;10.03;;;5.50;;
4359;SDS011;2193;47.980;7.660;2022-10-17T07:43:38;9.80;;;5.00;;
4359;SDS011;2193;47.980;7.660;2022-10-17T07:46:05;9.80;;;5.20;;
4359;SDS011;2193;47.980;7.660;2022-10-17T07:48:32;11.00;;;5.20;;
4359;SDS011;2193;47.980;7.660;2022-10-17T07:51:00;7.00;;;4.80;;
4359;SDS011;2193;47.980;7.660;2022-10-17T07:53:25;11.47;;;5.60;;
4359;SDS011;2193;47.980;7.660;2022-10-17T07:55:50;8.07;;;4.93;;
4359;SDS011;2193;47.980;7.660;2022-10-17T07:58:16;10.73;;;5.67;;
4359;SDS011;2193;47.980;7.660;2022-10-17T08:00:41;13.33;;;5.50;;
4359;SDS011;2193;47.980;7.660;2022-10-17T08:03:06;7.73;;;4.67;;
4359;SDS011;2193;47.980;7.660;2022-10-17T08:05:32;11.57;;;5.00;;
4359;SDS011;2193;47.980;7.660;2022-10-17T08:07:57;13.90;;;6.00;;
4359;SDS011;2193;47.980;7.660;2022-10-17T08:10:23;11.57;;;5.60;;
4359;SDS011;2193;47.980;7.660;2022-10-17T08:12:52;10.73;;;5.17;;
4359;SDS011;2193;47.980;7.660;2022-10-17T08:15:17;7.67;;;5.30;;
4359;SDS011;2193;47.980;7.660;2022-10-17T08:17:42;12.40;;;5.50;;
4359;SDS011;2193;47.980;7.660;2022-10-17T08:20:08;11.83;;;5.60;;
4359;SDS011;2193;47.980;7.660;2022-10-17T08:22:34;16.90;;;5.70;;
4359;SDS011;2193;47.980;7.660;2022-10-17T08:24:59;8.70;;;5.30;;
4359;SDS011;2193;47.980;7.660;2022-10-17T08:27:24;9.53;;;5.07;;
4359;SDS011;2193;47.980;7.660;2022-10-17T08:29:51;16.90;;;5.03;;
4359;SDS011;2193;47.980;7.660;2022-10-17T08:32:20;7.97;;;4.80;;
4359;SDS011;2193;47.980;7.660;2022-10-17T08:34:46;10.53;;;6.13;;
4359;SDS011;2193;47.980;7.660;2022-10-17T08:37:11;17.70;;;5.90;;
4359;SDS011;2193;47.980;7.660;2022-10-17T08:39:38;8.27;;;5.10;;
4359;SDS011;2193;47.980;7.660;2022-10-17T08:47:01;12.03;;;5.83;;
4359;SDS011;2193;47.980;7.660;2022-10-17T08:49:39;15.53;;;5.90;;
4359;SDS011;2193;47.980;7.660;2022-10-17T08:52:20;13.20;;;6.00;;
4359;SDS011;2193;47.980;7.660;2022-10-17T08:54:46;10.10;;;5.77;;
4359;SDS011;2193;47.980;7.660;2022-10-17T08:57:12;8.50;;;5.70;;
4359;SDS011;2193;47.980;7.660;2022-10-17T08:59:39;17.80;;;5.77;;
4359;SDS011;2193;47.980;7.660;2022-10-17T09:02:13;15.80;;;5.80;;
4359;SDS011;2193;47.980;7.660;2022-10-17T09:09:46;16.53;;;6.70;;
4359;SDS011;2193;47.980;7.660;2022-10-17T09:12:16;19.27;;;8.87;;
4359;SDS011;2193;47.980;7.660;2022-10-17T09:25:23;9.93;;;5.07;;
4359;SDS011;2193;47.980;7.660;2022-10-17T09:27:50;9.27;;;5.23;;
4359;SDS011;2193;47.980;7.660;2022-10-17T09:32:47;11.60;;;5.20;;
4359;SDS011;2193;47.980;7.660;2022-10-17T09:35:13;7.00;;;4.93;;
4359;SDS011;2193;47.980;7.660;2022-10-17T09:37:38;11.90;;;4.40;;
4359;SDS011;2193;47.980;7.660;2022-10-17T09:40:05;9.00;;;5.37;;
4359;SDS011;2193;47.980;7.660;2022-10-17T09:42:31;15.20;;;5.20;;
4359;SDS011;2193;47.980;7.660;2022-10-17T09:47:30;14.20;;;6.47;;
4359;SDS011;2193;47.980;7.660;2022-10-17T09:49:58;8.60;;;5.57;;
4359;SDS011;2193;47.980;7.660;2022-10-17T09:54:52;14.27;;;5.37;;
4359;SDS011;2193;47.980;7.660;2022-10-17T09:57:19;9.80;;;4.70;;
4359;SDS011;2193;47.980;7.660;2022-10-17T09:59:46;11.53;;;4.40;;
4359;SDS011;2193;47.980;7.660;2022-10-17T10:05:14;13.33;;;5.10;;
4359;SDS011;2193;47.980;7.660;2022-10-17T10:07:29;10.53;;;3.60;;
4359;SDS011;2193;47.980;7.660;2022-10-17T10:09:55;10.50;;;4.77;;
4359;SDS011;2193;47.980;7.660;2022-10-17T10:12:22;10.37;;;4.33;;
4359;SDS011;2193;47.980;7.660;2022-10-17T10:14:47;11.47;;;4.30;;
4359;SDS011;2193;47.980;7.660;2022-10-17T10:17:26;10.00;;;4.50;;
4359;SDS011;2193;47.980;7.660;2022-10-17T10:19:52;15.57;;;4.23;;
4359;SDS011;2193;47.980;7.660;2022-10-17T10:22:18;8.20;;;4.20;;
4359;SDS011;2193;47.980;7.660;2022-10-17T10:24:44;9.83;;;3.70;;
4359;SDS011;2193;47.980;7.660;2022-10-17T10:27:11;9.47;;;3.97;;
4359;SDS011;2193;47.980;7.660;2022-10-17T10:29:39;9.83;;;3.27;;
4359;SDS011;2193;47.980;7.660;2022-10-17T10:34:33;7.83;;;3.60;;
4359;SDS011;2193;47.980;7.660;2022-10-17T10:37:13;6.50;;;3.53;;
4359;SDS011;2193;47.980;7.660;2022-10-17T10:39:41;8.30;;;3.10;;
4359;SDS011;2193;47.980;7.660;2022-10-17T10:42:17;6.13;;;3.20;;
4359;SDS011;2193;47.980;7.660;2022-10-17T10:44:43;5.87;;;2.97;;
4359;SDS011;2193;47.980;7.660;2022-10-17T10:47:19;9.93;;;3.20;;
4359;SDS011;2193;47.980;7.660;2022-10-17T10:49:45;6.83;;;3.27;;
4359;SDS011;2193;47.980;7.660;2022-10-17T10:52:14;12.53;;;3.17;;
4359;SDS011;2193;47.980;7.660;2022-10-17T10:54:52;6.10;;;3.13;;
4359;SDS011;2193;47.980;7.660;2022-10-17T10:57:19;6.50;;;2.80;;
4359;SDS011;2193;47.980;7.660;2022-10-17T11:00:09;4.43;;;2.77;;
4359;SDS011;2193;47.980;7.660;2022-10-17T11:05:19;8.07;;;2.80;;
4359;SDS011;2193;47.980;7.660;2022-10-17T11:07:54;4.97;;;2.80;;
4359;SDS011;2193;47.980;7.660;2022-10-17T11:13:10;9.07;;;2.80;;
4359;SDS011;2193;47.980;7.660;2022-10-17T11:15:54;9.37;;;2.67;;
4359;SDS011;2193;47.980;7.660;2022-10-17T11:20:54;5.97;;;2.27;;
4359;SDS011;2193;47.980;7.660;2022-10-17T11:23:43;6.60;;;2.40;;
4359;SDS011;2193;47.980;7.660;2022-10-17T11:26:12;8.90;;;2.37;;
4359;SDS011;2193;47.980;7.660;2022-10-17T11:28:40;4.30;;;2.23;;
4359;SDS011;2193;47.980;7.660;2022-10-17T11:31:07;3.87;;;2.07;;
4359;SDS011;2193;47.980;7.660;2022-10-17T11:33:35;5.27;;;2.47;;
4359;SDS011;2193;47.980;7.660;2022-10-17T11:36:05;5.40;;;2.17;;
4359;SDS011;2193;47.980;7.660;2022-10-17T11:40:57;2.60;;;2.27;;
4359;SDS011;2193;47.980;7.660;2022-10-17T11:45:51;7.13;;;2.67;;
4359;SDS011;2193;47.980;7.660;2022-10-17T11:49:03;1.80;;;1.60;;
4359;SDS011;2193;47.980;7.660;2022-10-17T11:51:09;2.90;;;1.87;;
4359;SDS011;2193;47.980;7.660;2022-10-17T11:56:13;3.37;;;1.73;;
4359;SDS011;2193;47.980;7.660;2022-10-17T11:58:44;5.07;;;1.87;;
4359;SDS011;2193;47.980;7.660;2022-10-17T12:04:15;4.23;;;1.80;;
4359;SDS011;2193;47.980;7.660;2022-10-17T12:09:11;6.33;;;2.10;;
4359;SDS011;2193;47.980;7.660;2022-10-17T12:14:33;2.00;;;1.63;;
4359;SDS011;2193;47.980;7.660;2022-10-17T12:16:53;5.23;;;1.90;;
4359;SDS011;2193;47.980;7.660;2022-10-17T12:19:19;4.07;;;1.90;;
4359;SDS011;2193;47.980;7.660;2022-10-17T12:21:58;3.47;;;1.70;;
4359;SDS011;2193;47.980;7.660;2022-10-17T12:24:28;3.60;;;1.77;;
4359;SDS011;2193;47.980;7.660;2022-10-17T12:26:55;1.93;;;1.67;;
4359;SDS011;2193;47.980;7.660;2022-10-17T12:29:27;3.47;;;1.80;;
4359;SDS011;2193;47.980;7.660;2022-10-17T12:31:54;2.80;;;1.60;;
4359;SDS011;2193;47.980;7.660;2022-10-17T12:34:33;4.03;;;1.70;;
4359;SDS011;2193;47.980;7.660;2022-10-17T12:36:58;2.03;;;1.37;;
4359;SDS011;2193;47.980;7.660;2022-10-17T12:54:54;5.33;;;1.60;;
4359;SDS011;2193;47.980;7.660;2022-10-17T13:00:05;3.73;;;1.90;;
4359;SDS011;2193;47.980;7.660;2022-10-17T13:02:36;4.37;;;2.10;;
4359;SDS011;2193;47.980;7.660;2022-10-17T13:05:03;3.43;;;1.73;;
4359;SDS011;2193;47.980;7.660;2022-10-17T13:07:30;10.50;;;1.90;;
4359;SDS011;2193;47.980;7.660;2022-10-17T13:09:57;2.97;;;1.47;;
4359;SDS011;2193;47.980;7.660;2022-10-17T13:12:28;2.27;;;1.80;;
4359;SDS011;2193;47.980;7.660;2022-10-17T13:14:54;2.10;;;1.90;;
4359;SDS011;2193;47.980;7.660;2022-10-17T13:17:21;5.00;;;1.90;;
4359;SDS011;2193;47.980;7.660;2022-10-17T13:19:46;3.67;;;1.73;;
4359;SDS011;2193;47.980;7.660;2022-10-17T13:22:22;1.60;;;1.50;;
4359;SDS011;2193;47.980;7.660;2022-10-17T13:24:48;4.33;;;1.90;;
4359;SDS011;2193;47.980;7.660;2022-10-17T13:29:47;2.00;;;1.80;;
4359;SDS011;2193;47.980;7.660;2022-10-17T13:32:13;2.60;;;1.90;;
4359;SDS011;2193;47.980;7.660;2022-10-17T13:34:38;2.00;;;1.73;;
4359;SDS011;2193;47.980;7.660;2022-10-17T13:37:04;4.43;;;2.10;;
4359;SDS011;2193;47.980;7.660;2022-10-17T13:39:33;3.00;;;1.73;;
4359;SDS011;2193;47.980;7.660;2022-10-17T13:42:00;5.20;;;1.93;;
4359;SDS011;2193;47.980;7.660;2022-10-17T13:44:26;4.93;;;1.70;;
4359;SDS011;2193;47.980;7.660;2022-10-17T13:46:52;10.23;;;1.90;;
4359;SDS011;2193;47.980;7.660;2022-10-17T13:49:19;3.30;;;1.90;;
4359;SDS011;2193;47.980;7.660;2022-10-17T13:51:47;4.07;;;1.90;;
4359;SDS011;2193;47.980;7.660;2022-10-17T13:54:17;6.20;;;2.00;;
4359;SDS011;2193;47.980;7.660;2022-10-17T13:56:43;4.03;;;1.80;;
4359;SDS011;2193;47.980;7.660;2022-10-17T13:59:17;3.00;;;2.00;;
4359;SDS011;2193;47.980;7.660;2022-10-17T14:01:43;3.60;;;1.70;;
4359;SDS011;2193;47.980;7.660;2022-10-17T14:04:09;4.30;;;2.10;;
4359;SDS011;2193;47.980;7.660;2022-10-17T14:06:36;3.33;;;2.10;;
4359;SDS011;2193;47.980;7.660;2022-10-17T14:09:06;2.50;;;2.10;;
4359;SDS011;2193;47.980;7.660;2022-10-17T14:11:40;3.10;;;2.00;;
4359;SDS011;2193;47.980;7.660;2022-10-17T14:14:14;4.57;;;2.23;;
4359;SDS011;2193;47.980;7.660;2022-10-17T14:16:40;2.50;;;1.87;;
4359;SDS011;2193;47.980;7.660;2022-10-17T14:19:18;1.93;;;1.70;;
4359;SDS011;2193;47.980;7.660;2022-10-17T14:21:47;7.77;;;2.10;;
4359;SDS011;2193;47.980;7.660;2022-10-17T14:24:14;7.57;;;2.00;;
4359;SDS011;2193;47.980;7.660;2022-10-17T14:26:52;2.97;;;1.87;;
4359;SDS011;2193;47.980;7.660;2022-10-17T14:29:25;7.27;;;2.00;;
4359;SDS011;2193;47.980;7.660;2022-10-17T14:32:04;4.37;;;1.90;;
4359;SDS011;2193;47.980;7.660;2022-10-17T14:34:31;1.77;;;1.67;;
4359;SDS011;2193;47.980;7.660;2022-10-17T14:36:56;3.97;;;2.30;;
4359;SDS011;2193;47.980;7.660;2022-10-17T14:39:22;5.10;;;2.00;;
4359;SDS011;2193;47.980;7.660;2022-10-17T14:41:49;3.10;;;2.00;;
4359;SDS011;2193;47.980;7.660;2022-10-17T14:44:19;4.97;;;2.03;;
4359;SDS011;2193;47.980;7.660;2022-10-17T14:46:45;5.90;;;2.10;;
4359;SDS011;2193;47.980;7.660;2022-10-17T14:49:15;3.47;;;2.00;;
4359;SDS011;2193;47.980;7.660;2022-10-17T14:52:07;4.90;;;2.03;;
4359;SDS011;2193;47.980;7.660;2022-10-17T14:54:27;2.27;;;1.90;;
4359;SDS011;2193;47.980;7.660;2022-10-17T14:56:56;4.50;;;2.30;;
4359;SDS011;2193;47.980;7.660;2022-10-17T14:59:21;3.90;;;2.10;;
4359;SDS011;2193;47.980;7.660;2022-10-17T15:01:49;5.50;;;2.40;;
4359;SDS011;2193;47.980;7.660;2022-10-17T15:04:15;3.77;;;1.97;;
4359;SDS011;2193;47.980;7.660;2022-10-17T15:06:40;3.30;;;2.20;;
4359;SDS011;2193;47.980;7.660;2022-10-17T15:09:05;4.93;;;2.00;;
4359;SDS011;2193;47.980;7.660;2022-10-17T15:11:31;8.07;;;2.10;;
4359;SDS011;2193;47.980;7.660;2022-10-17T15:13:56;5.83;;;2.30;;
4359;SDS011;2193;47.980;7.660;2022-10-17T15:18:47;3.30;;;2.00;;
4359;SDS011;2193;47.980;7.660;2022-10-17T15:21:13;8.10;;;2.27;;
4359;SDS011;2193;47.980;7.660;2022-10-17T15:23:39;8.47;;;2.33;;
4359;SDS011;2193;47.980;7.660;2022-10-17T15:26:14;4.50;;;2.30;;
4359;SDS011;2193;47.980;7.660;2022-10-17T15:28:39;4.60;;;2.20;;
4359;SDS011;2193;47.980;7.660;2022-10-17T15:31:05;4.00;;;2.50;;
4359;SDS011;2193;47.980;7.660;2022-10-17T15:33:30;6.73;;;2.63;;
4359;SDS011;2193;47.980;7.660;2022-10-17T15:35:55;5.23;;;2.40;;
4359;SDS011;2193;47.980;7.660;2022-10-17T15:38:20;7.07;;;2.97;;
4359;SDS011;2193;47.980;7.660;2022-10-17T15:40:46;5.17;;;3.20;;
4359;SDS011;2193;47.980;7.660;2022-10-17T15:43:14;10.57;;;2.93;;
4359;SDS011;2193;47.980;7.660;2022-10-17T15:45:39;8.40;;;2.27;;
4359;SDS011;2193;47.980;7.660;2022-10-17T15:48:05;3.40;;;2.10;;
4359;SDS011;2193;47.980;7.660;2022-10-17T15:50:31;4.03;;;2.80;;
4359;SDS011;2193;47.980;7.660;2022-10-17T15:52:57;6.37;;;2.80;;
4359;SDS011;2193;47.980;7.660;2022-10-17T15:55:22;6.73;;;3.07;;
4359;SDS011;2193;47.980;7.660;2022-10-17T15:57:48;8.93;;;3.80;;
4359;SDS011;2193;47.980;7.660;2022-10-17T16:00:15;12.50;;;4.97;;
4359;SDS011;2193;47.980;7.660;2022-10-17T16:02:41;16.50;;;7.67;;
4359;SDS011;2193;47.980;7.660;2022-10-17T16:05:13;17.87;;;9.40;;
4359;SDS011;2193;47.980;7.660;2022-10-17T16:07:38;30.20;;;13.47;;
4359;SDS011;2193;47.980;7.660;2022-10-17T16:10:04;27.40;;;14.10;;
4359;SDS011;2193;47.980;7.660;2022-10-17T16:12:29;24.70;;;12.17;;
4359;SDS011;2193;47.980;7.660;2022-10-17T16:14:57;18.23;;;8.80;;
4359;SDS011;2193;47.980;7.660;2022-10-17T16:17:22;17.47;;;7.50;;
4359;SDS011;2193;47.980;7.660;2022-10-17T16:19:48;9.10;;;5.70;;
4359;SDS011;2193;47.980;7.660;2022-10-17T16:22:22;11.67;;;5.73;;
4359;SDS011;2193;47.980;7.660;2022-10-17T16:24:48;8.93;;;5.40;;
4359;SDS011;2193;47.980;7.660;2022-10-17T16:27:13;11.37;;;4.97;;
4359;SDS011;2193;47.980;7.660;2022-10-17T16:29:39;9.37;;;5.00;;
4359;SDS011;2193;47.980;7.660;2022-10-17T16:32:04;11.60;;;4.97;;
4359;SDS011;2193;47.980;7.660;2022-10-17T16:34:29;7.23;;;4.70;;
4359;SDS011;2193;47.980;7.660;2022-10-17T16:36:56;5.70;;;4.30;;
4359;SDS011;2193;47.980;7.660;2022-10-17T16:39:21;5.47;;;3.43;;
4359;SDS011;2193;47.980;7.660;2022-10-17T16:41:46;7.50;;;3.40;;
4359;SDS011;2193;47.980;7.660;2022-10-17T16:44:11;7.23;;;3.73;;
4359;SDS011;2193;47.980;7.660;2022-10-17T16:46:38;10.50;;;3.20;;
4359;SDS011;2193;47.980;7.660;2022-10-17T16:49:04;6.70;;;3.50;;
4359;SDS011;2193;47.980;7.660;2022-10-17T16:51:30;9.57;;;3.83;;
4359;SDS011;2193;47.980;7.660;2022-10-17T16:53:57;8.50;;;3.30;;
4359;SDS011;2193;47.980;7.660;2022-10-17T16:56:24;8.90;;;4.17;;